createdAt,value
2022-11-21T00:00:19.699Z,98783.22
2022-11-21T00:02:47.140Z,98784.97
2022-11-21T00:05:14.803Z,98793.84
2022-11-21T00:07:42.273Z,98790.50
2022-11-21T00:10:11.393Z,98801.13
2022-11-21T00:12:38.969Z,98795.88
2022-11-21T00:15:07.610Z,98795.69
2022-11-21T00:17:35.854Z,98793.84
2022-11-21T00:20:03.267Z,98800.31
2022-11-21T00:22:31.908Z,98793.25
2022-11-21T00:24:59.898Z,98800.44
2022-11-21T00:27:28.685Z,98803.22
2022-11-21T00:29:56.139Z,98801.88
2022-11-21T00:32:23.594Z,98804.56
2022-11-21T00:34:51.054Z,98813.50
2022-11-21T00:37:18.495Z,98820.09
2022-11-21T00:39:45.921Z,98813.66
2022-11-21T00:42:13.374Z,98815.50
2022-11-21T00:44:42.216Z,98810.66
2022-11-21T00:47:09.620Z,98808.16
2022-11-21T00:49:37.007Z,98808.50
2022-11-21T00:52:04.728Z,98802.38
2022-11-21T00:54:32.131Z,98801.09
2022-11-21T00:56:59.673Z,98794.16
2022-11-21T00:59:27.158Z,98805.09
2022-11-21T01:01:55.898Z,98797.22
2022-11-21T01:04:23.458Z,98795.50
2022-11-21T01:06:50.876Z,98797.81
2022-11-21T01:09:18.291Z,98801.13
2022-11-21T01:11:46.021Z,98808.25
2022-11-21T01:14:13.423Z,98808.47
2022-11-21T01:16:40.855Z,98820.53
2022-11-21T01:19:09.829Z,98823.81
2022-11-21T01:21:37.287Z,98825.19
2022-11-21T01:24:05.066Z,98830.94
2022-11-21T01:26:33.501Z,98834.69
2022-11-21T01:29:01.743Z,98839.81
2022-11-21T01:31:31.231Z,98851.78
2022-11-21T01:34:00.014Z,98858.56
2022-11-21T01:36:30.843Z,98862.69
2022-11-21T01:38:59.556Z,98856.75
2022-11-21T01:41:31.066Z,98849.56
2022-11-21T01:43:58.684Z,98849.22
2022-11-21T01:46:27.032Z,98845.00
2022-11-21T01:48:56.641Z,98840.38
2022-11-21T01:51:27.205Z,98844.72
2022-11-21T01:53:59.229Z,98850.44
2022-11-21T01:56:28.154Z,98847.50
2022-11-21T01:58:58.504Z,98834.59
2022-11-21T02:01:26.025Z,98843.00
2022-11-21T02:03:54.040Z,98842.03
2022-11-21T02:06:21.927Z,98843.91
2022-11-21T02:08:49.486Z,98848.78
2022-11-21T02:11:23.486Z,98847.41
2022-11-21T02:13:50.930Z,98846.22
2022-11-21T02:16:18.367Z,98848.47
2022-11-21T02:18:45.810Z,98847.69
2022-11-21T02:21:19.215Z,98845.69
2022-11-21T02:23:50.842Z,98847.72
2022-11-21T02:26:19.695Z,98847.59
2022-11-21T02:28:47.171Z,98855.44
2022-11-21T02:31:14.603Z,98856.69
2022-11-21T02:33:42.014Z,98859.91
2022-11-21T02:36:38.776Z,98863.00
2022-11-21T02:39:07.105Z,98854.00
2022-11-21T02:41:36.695Z,98859.78
2022-11-21T02:44:06.590Z,98844.38
2022-11-21T02:46:34.822Z,98853.19
2022-11-21T02:49:05.573Z,98845.03
2022-11-21T02:51:33.029Z,98849.31
2022-11-21T02:54:00.427Z,98848.84
2022-11-21T02:56:28.005Z,98850.50
2022-11-21T02:58:57.234Z,98848.03
2022-11-21T03:01:24.823Z,98857.69
2022-11-21T03:03:52.239Z,98862.31
2022-11-21T03:06:19.859Z,98866.16
2022-11-21T03:08:47.457Z,98874.38
2022-11-21T03:11:14.883Z,98876.75
2022-11-21T03:13:42.279Z,98871.19
2022-11-21T03:16:11.069Z,98862.69
2022-11-21T03:18:38.492Z,98865.91
2022-11-21T03:21:05.911Z,98855.81
2022-11-21T03:23:33.313Z,98861.72
2022-11-21T03:26:00.746Z,98863.09
2022-11-21T03:28:29.206Z,98864.16
2022-11-21T03:30:56.645Z,98867.72
2022-11-21T03:33:25.403Z,98868.03
2022-11-21T03:35:52.804Z,98871.84
2022-11-21T03:38:20.199Z,98869.22
2022-11-21T03:40:47.586Z,98871.72
2022-11-21T03:43:14.987Z,98868.56
2022-11-21T03:45:42.407Z,98884.84
2022-11-21T03:48:09.829Z,98885.63
2022-11-21T03:50:38.615Z,98889.63
2022-11-21T03:53:07.023Z,98893.66
2022-11-21T03:55:34.440Z,98896.94
2022-11-21T03:58:01.828Z,98888.41
2022-11-21T04:00:29.251Z,98894.78
2022-11-21T04:02:56.667Z,98893.97
2022-11-21T04:05:24.088Z,98892.69
2022-11-21T04:07:53.888Z,98892.78
2022-11-21T04:10:21.876Z,98886.16
2022-11-21T04:12:49.290Z,98891.88
2022-11-21T04:15:17.019Z,98894.50
2022-11-21T04:17:44.485Z,98897.97
2022-11-21T04:20:12.554Z,98891.38
2022-11-21T04:22:39.979Z,98897.75
2022-11-21T04:25:09.369Z,98883.69
2022-11-21T04:27:36.967Z,98895.50
2022-11-21T04:30:05.114Z,98900.22
2022-11-21T04:32:32.536Z,98895.25
2022-11-21T04:34:59.923Z,98900.69
2022-11-21T04:37:27.448Z,98898.22
2022-11-21T04:39:54.848Z,98896.03
2022-11-21T04:42:23.638Z,98903.13
2022-11-21T04:44:51.051Z,98895.63
2022-11-21T04:47:18.450Z,98897.72
2022-11-21T04:49:45.881Z,98896.84
2022-11-21T04:52:14.328Z,98898.09
2022-11-21T04:54:41.759Z,98901.41
2022-11-21T04:57:09.189Z,98902.72
2022-11-21T04:59:37.959Z,98891.94
2022-11-21T05:02:05.379Z,98891.91
2022-11-21T05:04:32.822Z,98894.59
2022-11-21T05:07:00.292Z,98894.59
2022-11-21T05:09:27.819Z,98883.97
2022-11-21T05:12:12.671Z,98882.19
2022-11-21T05:14:41.434Z,98878.56
2022-11-21T05:17:08.957Z,98871.88
2022-11-21T05:19:36.396Z,98873.84
2022-11-21T05:22:03.888Z,98885.66
2022-11-21T05:24:31.307Z,98874.28
2022-11-21T05:26:58.888Z,98884.19
2022-11-21T05:29:28.218Z,98883.91
2022-11-21T05:31:57.262Z,98891.53
2022-11-21T05:34:24.675Z,98895.19
2022-11-21T05:36:56.932Z,98897.38
2022-11-21T05:39:24.442Z,98891.47
2022-11-21T05:41:52.308Z,98888.56
2022-11-21T05:44:18.894Z,98891.50
2022-11-21T05:46:46.502Z,98887.28
2022-11-21T05:49:15.444Z,98888.34
2022-11-21T05:51:42.829Z,98893.56
2022-11-21T05:54:13.552Z,98894.00
2022-11-21T05:56:40.996Z,98899.09
2022-11-21T05:59:09.626Z,98900.50
2022-11-21T06:01:54.668Z,98888.25
2022-11-21T06:04:23.502Z,98895.34
2022-11-21T06:06:50.955Z,98899.22
2022-11-21T06:09:18.515Z,98903.03
2022-11-21T06:11:45.904Z,98911.84
2022-11-21T06:14:13.290Z,98908.16
2022-11-21T06:16:40.703Z,98906.47
2022-11-21T06:19:08.275Z,98911.88
2022-11-21T06:21:37.279Z,98908.56
2022-11-21T06:24:05.492Z,98902.66
2022-11-21T06:26:32.873Z,98905.13
2022-11-21T06:29:00.287Z,98905.00
2022-11-21T06:31:28.542Z,98900.84
2022-11-21T06:33:57.396Z,98912.03
2022-11-21T06:36:25.319Z,98910.91
2022-11-21T06:38:55.929Z,98924.31
2022-11-21T06:41:24.786Z,98920.00
2022-11-21T06:43:52.239Z,98910.81
2022-11-21T06:46:19.705Z,98921.41
2022-11-21T06:48:47.159Z,98920.78
2022-11-21T06:51:17.982Z,98920.66
2022-11-21T06:53:45.987Z,98920.34
2022-11-21T06:56:15.771Z,98922.69
2022-11-21T06:58:43.270Z,98911.19
2022-11-21T07:01:11.450Z,98922.47
2022-11-21T07:03:38.905Z,98924.78
2022-11-21T07:06:07.204Z,98925.41
2022-11-21T07:08:36.327Z,98913.13
2022-11-21T07:13:53.431Z,98929.00
2022-11-21T07:16:20.854Z,98925.88
2022-11-21T07:18:48.281Z,98925.56
2022-11-21T07:21:15.747Z,98919.47
2022-11-21T07:23:43.167Z,98922.81
2022-11-21T07:26:11.258Z,98926.84
2022-11-21T07:28:39.100Z,98928.84
2022-11-21T07:31:13.554Z,98926.72
2022-11-21T07:33:42.997Z,98931.78
2022-11-21T07:36:10.499Z,98927.91
2022-11-21T07:38:37.912Z,98916.69
2022-11-21T07:41:05.351Z,98920.06
2022-11-21T07:43:32.784Z,98929.84
2022-11-21T07:46:00.301Z,98920.78
2022-11-21T07:48:29.070Z,98927.31
2022-11-21T07:50:56.520Z,98927.09
2022-11-21T07:53:26.831Z,98926.06
2022-11-21T07:55:54.237Z,98927.16
2022-11-21T07:58:21.643Z,98927.16
2022-11-21T08:00:49.111Z,98930.00
2022-11-21T08:03:16.574Z,98938.34
2022-11-21T08:05:45.625Z,98935.16
2022-11-21T08:08:13.918Z,98929.50
2022-11-21T08:10:43.118Z,98928.41
2022-11-21T08:13:11.050Z,98933.53
2022-11-21T08:15:38.789Z,98931.13
2022-11-21T08:18:10.500Z,98943.25
2022-11-21T08:20:38.294Z,98931.53
2022-11-21T08:23:07.466Z,98931.13
2022-11-21T08:25:35.076Z,98930.31
2022-11-21T08:28:03.465Z,98935.69
2022-11-21T08:30:31.029Z,98924.25
2022-11-21T08:32:58.593Z,98924.53
2022-11-21T08:35:26.036Z,98920.06
2022-11-21T08:37:57.047Z,98921.94
2022-11-21T08:40:26.627Z,98926.50
2022-11-21T08:42:57.638Z,98931.66
2022-11-21T08:45:25.652Z,98915.94
2022-11-21T08:47:53.674Z,98909.50
2022-11-21T08:50:21.343Z,98911.00
2022-11-21T08:52:48.767Z,98914.09
2022-11-21T08:55:16.703Z,98913.44
2022-11-21T08:57:45.501Z,98901.53
2022-11-21T09:00:14.183Z,98900.53
2022-11-21T09:02:41.723Z,98899.13
2022-11-21T09:05:10.319Z,98897.63
2022-11-21T09:07:37.800Z,98899.34
2022-11-21T09:10:06.267Z,98899.34
2022-11-21T09:12:33.900Z,98892.88
2022-11-21T09:15:20.371Z,98905.16
2022-11-21T09:18:07.457Z,98901.41
2022-11-21T09:20:39.850Z,98898.00
2022-11-21T09:23:08.106Z,98905.66
2022-11-21T09:25:35.701Z,98896.22
2022-11-21T09:28:03.519Z,98886.31
2022-11-21T09:30:32.316Z,98882.63
2022-11-21T09:33:01.857Z,98888.94
2022-11-21T09:35:32.502Z,98889.53
2022-11-21T09:38:01.182Z,98893.88
2022-11-21T09:40:30.026Z,98900.44
2022-11-21T09:43:11.331Z,98900.25
2022-11-21T09:45:43.251Z,98888.19
2022-11-21T09:48:13.280Z,98891.28
2022-11-21T09:50:43.635Z,98892.22
2022-11-21T09:53:13.150Z,98884.47
2022-11-21T09:55:47.361Z,98897.59
2022-11-21T09:58:22.857Z,98887.00
2022-11-21T10:00:52.847Z,98891.09
2022-11-21T10:03:22.633Z,98884.19
2022-11-21T10:05:53.520Z,98901.31
2022-11-21T10:08:29.111Z,98891.19
2022-11-21T10:10:59.446Z,98879.09
2022-11-21T10:13:35.934Z,98888.84
2022-11-21T10:16:10.375Z,98879.88
2022-11-21T10:18:58.629Z,98874.97
2022-11-21T10:21:37.679Z,98869.41
2022-11-21T10:24:18.804Z,98865.94
2022-11-21T10:26:51.723Z,98852.28
2022-11-21T10:29:21.479Z,98849.72
2022-11-21T10:31:50.509Z,98851.22
2022-11-21T10:34:20.916Z,98843.25
2022-11-21T10:36:50.803Z,98844.97
2022-11-21T10:39:21.236Z,98848.38
2022-11-21T10:41:51.751Z,98850.78
2022-11-21T10:44:44.059Z,98845.41
2022-11-21T10:47:27.144Z,98842.47
2022-11-21T10:50:01.038Z,98837.09
2022-11-21T10:52:32.074Z,98832.50
2022-11-21T10:55:09.744Z,98824.88
2022-11-21T10:57:42.350Z,98817.63
2022-11-21T11:00:20.071Z,98819.28
2022-11-21T11:03:11.132Z,98815.66
2022-11-21T11:05:39.207Z,98820.75
2022-11-21T11:08:08.990Z,98823.00
2022-11-21T11:10:38.184Z,98808.63
2022-11-21T11:13:45.850Z,98803.66
2022-11-21T11:16:17.140Z,98790.78
2022-11-21T11:18:51.634Z,98790.84
2022-11-21T11:21:21.388Z,98794.56
2022-11-21T11:23:49.636Z,98788.84
2022-11-21T11:26:23.252Z,98787.78
2022-11-21T11:28:51.116Z,98773.94
2022-11-21T11:31:18.535Z,98777.88
2022-11-21T11:33:55.535Z,98772.38
2022-11-21T11:36:32.603Z,98767.69
2022-11-21T11:39:00.929Z,98757.84
2022-11-21T11:42:17.504Z,98762.59
2022-11-21T11:45:10.480Z,98754.16
2022-11-21T11:47:50.253Z,98751.22
2022-11-21T11:50:28.237Z,98749.22
2022-11-21T11:53:02.784Z,98752.47
2022-11-21T11:55:37.874Z,98741.75
2022-11-21T11:58:09.096Z,98738.69
2022-11-21T12:00:41.690Z,98737.72
2022-11-21T12:03:14.821Z,98730.38
2022-11-21T12:05:52.539Z,98728.72
2022-11-21T12:08:41.781Z,98724.38
2022-11-21T12:11:44.498Z,98722.28
2022-11-21T12:14:40.224Z,98718.44
2022-11-21T12:17:09.987Z,98715.28
2022-11-21T12:19:38.452Z,98714.13
2022-11-21T12:22:11.450Z,98710.13
2022-11-21T12:24:42.965Z,98707.38
2022-11-21T12:27:22.159Z,98709.13
2022-11-21T12:29:59.776Z,98692.91
2022-11-21T12:32:36.660Z,98694.09
2022-11-21T12:35:22.000Z,98692.97
2022-11-21T12:37:56.187Z,98690.66
2022-11-21T12:40:30.992Z,98676.31
2022-11-21T12:43:08.950Z,98672.47
2022-11-21T12:45:38.399Z,98666.44
2022-11-21T12:48:31.221Z,98660.63
2022-11-21T12:51:28.331Z,98658.09
2022-11-21T12:54:20.595Z,98650.44
2022-11-21T12:56:50.703Z,98648.91
2022-11-21T12:59:20.093Z,98639.47
2022-11-21T13:01:52.221Z,98640.81
2022-11-21T13:04:22.934Z,98649.91
2022-11-21T13:06:51.100Z,98650.78
2022-11-21T13:09:21.416Z,98640.47
2022-11-21T13:12:01.194Z,98631.34
2022-11-21T13:14:34.516Z,98640.03
2022-11-21T13:17:08.092Z,98636.81
2022-11-21T13:19:42.576Z,98632.19
2022-11-21T13:22:43.311Z,98621.09
2022-11-21T13:25:12.903Z,98619.88
2022-11-21T13:27:41.187Z,98627.81
2022-11-21T13:30:27.505Z,98624.22
2022-11-21T13:32:55.740Z,98626.38
2022-11-21T13:36:06.007Z,98620.06
2022-11-21T13:39:11.585Z,98611.66
2022-11-21T13:44:41.624Z,98619.06
2022-11-21T13:47:13.122Z,98599.06
2022-11-21T13:49:47.373Z,98605.63
2022-11-21T13:52:24.290Z,98601.25
2022-11-21T13:55:14.480Z,98595.69
2022-11-21T13:57:57.336Z,98595.16
2022-11-21T14:00:31.228Z,98587.81
2022-11-21T14:03:17.899Z,98587.78
2022-11-21T14:06:06.491Z,98586.34
2022-11-21T14:08:34.303Z,98589.56
2022-11-21T14:11:20.175Z,98580.84
2022-11-21T14:13:49.147Z,98575.81
2022-11-21T14:16:26.083Z,98571.84
2022-11-21T14:18:53.930Z,98566.59
2022-11-21T14:21:26.407Z,98559.91
2022-11-21T14:23:54.463Z,98553.91
2022-11-21T14:26:22.698Z,98551.31
2022-11-21T14:28:50.209Z,98540.47
2022-11-21T14:31:17.659Z,98542.50
2022-11-21T14:33:48.358Z,98534.38
2022-11-21T14:36:17.372Z,98539.44
2022-11-21T14:38:51.014Z,98524.91
2022-11-21T14:41:28.661Z,98527.00
2022-11-21T14:44:04.169Z,98517.56
2022-11-21T14:46:32.932Z,98512.91
2022-11-21T14:49:19.207Z,98510.94
2022-11-21T14:51:48.915Z,98506.00
2022-11-21T14:54:19.111Z,98501.56
2022-11-21T14:56:48.194Z,98494.13
2022-11-21T14:59:25.036Z,98493.75
2022-11-21T15:01:57.495Z,98494.09
2022-11-21T15:04:31.772Z,98480.28
2022-11-21T15:06:59.623Z,98473.75
2022-11-21T15:12:20.582Z,98462.13
2022-11-21T15:14:49.480Z,98464.69
2022-11-21T15:17:20.336Z,98470.56
2022-11-21T15:20:09.962Z,98468.41
2022-11-21T15:22:41.076Z,98463.19
2022-11-21T15:25:10.434Z,98462.53
2022-11-21T15:27:37.859Z,98452.38
2022-11-21T15:30:16.712Z,98446.59
2022-11-21T15:32:59.600Z,98449.72
2022-11-21T15:35:47.420Z,98447.38
2022-11-21T15:38:19.805Z,98433.47
2022-11-21T15:41:04.937Z,98435.84
2022-11-21T15:43:37.429Z,98437.84
2022-11-21T15:46:06.268Z,98432.41
2022-11-21T15:48:33.743Z,98429.94
2022-11-21T15:51:02.550Z,98427.78
2022-11-21T15:53:30.011Z,98426.75
2022-11-21T15:55:57.411Z,98420.81
2022-11-21T15:58:24.846Z,98416.72
2022-11-21T16:00:52.354Z,98412.09
2022-11-21T16:03:19.807Z,98410.81
2022-11-21T16:05:48.060Z,98406.78
2022-11-21T16:08:16.924Z,98394.22
2022-11-21T16:10:48.187Z,98407.03
2022-11-21T16:13:16.595Z,98402.31
2022-11-21T16:15:44.020Z,98393.34
2022-11-21T16:18:11.428Z,98388.81
2022-11-21T16:20:38.836Z,98390.69
2022-11-21T16:23:06.352Z,98385.38
2022-11-21T16:25:35.137Z,98385.72
2022-11-21T16:28:06.982Z,98384.22
2022-11-21T16:30:34.867Z,98383.38
2022-11-21T16:33:03.085Z,98375.47
2022-11-21T16:35:30.519Z,98374.78
2022-11-21T16:37:58.015Z,98361.19
2022-11-21T16:40:27.898Z,98357.06
2022-11-21T16:43:08.723Z,98351.13
2022-11-21T16:45:36.227Z,98350.22
2022-11-21T16:48:03.847Z,98343.09
2022-11-21T16:50:31.484Z,98333.25
2022-11-21T16:52:59.257Z,98328.91
2022-11-21T16:55:26.756Z,98315.97
2022-11-21T16:57:54.828Z,98314.88
2022-11-21T17:00:24.253Z,98314.03
2022-11-21T17:02:51.670Z,98310.41
2022-11-21T17:05:19.221Z,98315.34
2022-11-21T17:07:47.331Z,98309.63
2022-11-21T17:10:15.345Z,98311.28
2022-11-21T17:12:44.038Z,98299.00
2022-11-21T17:15:13.894Z,98294.09
2022-11-21T17:17:42.980Z,98294.13
2022-11-21T17:20:11.366Z,98294.97
2022-11-21T17:22:39.025Z,98294.59
2022-11-21T17:25:07.450Z,98292.44
2022-11-21T17:27:34.960Z,98292.28
2022-11-21T17:30:02.494Z,98277.16
2022-11-21T17:32:29.984Z,98264.44
2022-11-21T17:34:58.889Z,98248.94
2022-11-21T17:37:26.323Z,98247.00
2022-11-21T17:39:54.099Z,98235.34
2022-11-21T17:42:21.504Z,98225.88
2022-11-21T17:44:49.144Z,98237.84
2022-11-21T17:47:16.686Z,98239.50
2022-11-21T17:49:44.102Z,98233.28
2022-11-21T17:52:12.947Z,98225.31
2022-11-21T17:54:40.396Z,98236.94
2022-11-21T17:57:08.015Z,98217.63
2022-11-21T17:59:38.356Z,98214.19
2022-11-21T18:02:05.943Z,98203.72
2022-11-21T18:04:34.344Z,98211.88
2022-11-21T18:07:01.799Z,98203.94
2022-11-21T18:09:30.822Z,98200.78
2022-11-21T18:11:58.556Z,98192.75
2022-11-21T18:14:26.592Z,98199.53
2022-11-21T18:16:54.970Z,98188.34
2022-11-21T18:19:22.861Z,98185.94
2022-11-21T18:21:51.671Z,98183.81
2022-11-21T18:24:19.292Z,98179.56
2022-11-21T18:26:48.058Z,98175.16
2022-11-21T18:32:03.163Z,98176.94
2022-11-21T18:34:30.659Z,98178.75
2022-11-21T18:36:58.078Z,98182.34
2022-11-21T18:39:27.072Z,98169.91
2022-11-21T18:41:55.976Z,98165.31
2022-11-21T18:44:23.570Z,98155.69
2022-11-21T18:46:51.228Z,98148.34
2022-11-21T18:49:18.852Z,98144.25
2022-11-21T18:51:46.454Z,98147.84
2022-11-21T18:54:13.887Z,98143.91
2022-11-21T18:56:41.539Z,98152.94
2022-11-21T18:59:10.777Z,98155.03
2022-11-21T19:01:39.308Z,98148.84
2022-11-21T19:04:07.111Z,98144.75
2022-11-21T19:06:35.329Z,98131.84
2022-11-21T19:09:02.895Z,98138.72
2022-11-21T19:11:30.842Z,98127.41
2022-11-21T19:13:59.130Z,98122.16
2022-11-21T19:16:30.803Z,98126.41
2022-11-21T19:21:47.063Z,98136.75
2022-11-21T19:24:15.994Z,98139.53
2022-11-21T19:26:43.811Z,98156.22
2022-11-21T19:29:12.048Z,98179.31
2022-11-21T19:31:45.752Z,98170.13
2022-11-21T19:34:13.939Z,98153.25
2022-11-21T19:36:41.739Z,98133.13
2022-11-21T19:39:09.835Z,98147.03
2022-11-21T19:41:37.469Z,98137.72
2022-11-21T19:44:05.311Z,98128.06
2022-11-21T19:46:34.569Z,98132.13
2022-11-21T19:49:04.395Z,98126.72
2022-11-21T19:51:33.757Z,98133.84
2022-11-21T19:54:02.815Z,98140.94
2022-11-21T19:56:30.481Z,98144.41
2022-11-21T19:58:58.555Z,98142.72
2022-11-21T20:01:31.039Z,98148.63
2022-11-21T20:04:00.207Z,98154.63
2022-11-21T20:06:31.057Z,98143.69
2022-11-21T20:09:00.131Z,98149.41
2022-11-21T20:11:28.742Z,98137.78
2022-11-21T20:13:56.231Z,98130.75
2022-11-21T20:16:25.919Z,98140.06
2022-11-21T20:18:56.826Z,98141.41
2022-11-21T20:21:24.701Z,98140.28
2022-11-21T20:23:53.815Z,98135.19
2022-11-21T20:26:22.607Z,98131.72
2022-11-21T20:28:51.332Z,98133.69
2022-11-21T20:31:21.008Z,98134.00
2022-11-21T20:33:50.139Z,98132.72
2022-11-21T20:36:21.816Z,98130.44
2022-11-21T20:38:50.940Z,98135.31
2022-11-21T20:41:20.052Z,98135.31
2022-11-21T20:46:35.483Z,98133.31
2022-11-21T20:49:03.115Z,98123.44
2022-11-21T20:54:20.835Z,98116.00
2022-11-21T20:56:49.613Z,98110.63
2022-11-21T20:59:17.100Z,98108.28
2022-11-21T21:01:44.567Z,98104.69
2022-11-21T21:04:12.151Z,98101.91
2022-11-21T21:06:39.942Z,98103.47
2022-11-21T21:09:07.480Z,98100.69
2022-11-21T21:11:51.545Z,98094.97
2022-11-21T21:14:21.861Z,98089.66
2022-11-21T21:16:49.573Z,98097.72
2022-11-21T21:19:17.321Z,98096.16
2022-11-21T21:21:44.847Z,98086.25
2022-11-21T21:24:12.972Z,98076.88
2022-11-21T21:26:43.404Z,98077.50
2022-11-21T21:29:12.691Z,98073.56
2022-11-21T21:31:45.506Z,98074.44
2022-11-21T21:34:17.355Z,98073.84
2022-11-21T21:36:44.777Z,98068.28
2022-11-21T21:39:12.354Z,98061.63
2022-11-21T21:41:44.182Z,98059.00
2022-11-21T21:44:11.596Z,98049.63
2022-11-21T21:46:39.006Z,98047.34
2022-11-21T21:49:07.756Z,98040.31
2022-11-21T21:51:36.910Z,98033.75
2022-11-21T21:54:04.574Z,98029.88
2022-11-21T21:56:32.038Z,98023.81
2022-11-21T21:58:59.884Z,98015.66
2022-11-21T22:01:29.509Z,98020.91
2022-11-21T22:03:58.446Z,98017.63
2022-11-21T22:06:27.550Z,98020.25
2022-11-21T22:08:55.911Z,98018.91
2022-11-21T22:11:24.966Z,98004.34
2022-11-21T22:13:54.043Z,97997.16
2022-11-21T22:16:21.705Z,97997.63
2022-11-21T22:18:49.281Z,97995.19
2022-11-21T22:21:17.963Z,97993.91
2022-11-21T22:24:17.309Z,97986.66
2022-11-21T22:26:34.684Z,97986.66
2022-11-21T22:29:02.169Z,97993.59
2022-11-21T22:31:31.184Z,97988.31
2022-11-21T22:33:58.705Z,97980.28
2022-11-21T22:36:26.606Z,97976.16
2022-11-21T22:38:55.847Z,97979.94
2022-11-21T22:41:24.343Z,97978.44
2022-11-21T22:43:53.380Z,97974.69
2022-11-21T22:46:21.386Z,97966.16
2022-11-21T22:48:49.299Z,97961.09
2022-11-21T22:51:19.402Z,97955.53
2022-11-21T22:53:49.645Z,97966.34
2022-11-21T22:56:20.026Z,97963.25
2022-11-21T22:58:48.151Z,97958.63
2022-11-21T23:01:17.349Z,97956.84
2022-11-21T23:03:45.327Z,97953.66
2022-11-21T23:06:14.263Z,97953.25
2022-11-21T23:08:42.407Z,97955.19
2022-11-21T23:11:11.564Z,97958.91
2022-11-21T23:13:42.514Z,97951.84
2022-11-21T23:16:10.811Z,97950.00
2022-11-21T23:18:38.466Z,97956.16
2022-11-21T23:21:06.283Z,97963.06
2022-11-21T23:23:33.728Z,97949.25
2022-11-21T23:26:01.450Z,97944.50
2022-11-21T23:28:29.063Z,97948.06
2022-11-21T23:30:58.051Z,97952.34
2022-11-21T23:33:25.582Z,97960.00
2022-11-21T23:35:53.008Z,97950.91
2022-11-21T23:38:20.696Z,97956.63
2022-11-21T23:40:48.800Z,97957.50
2022-11-21T23:43:16.772Z,97958.81
2022-11-21T23:45:45.244Z,97965.59
2022-11-21T23:48:13.981Z,97961.72
2022-11-21T23:50:41.501Z,97961.34
2022-11-21T23:53:09.758Z,97943.78
2022-11-21T23:55:37.357Z,97946.97
2022-11-21T23:58:05.029Z,97938.84
